sensor_id;sensor_type;location;lat;lon;timestamp;P1;durP1;ratioP1;P2;durP2;ratioP2
16193;SDS011;8204;53.582;10.080;2023-11-18T00:00:18;8.23;;;7.50;;
16193;SDS011;8204;53.582;10.080;2023-11-18T00:02:46;7.87;;;7.17;;
16193;SDS011;8204;53.582;10.080;2023-11-18T00:05:12;9.47;;;8.47;;
16193;SDS011;8204;53.582;10.080;2023-11-18T00:07:39;8.27;;;7.47;;
16193;SDS011;8204;53.582;10.080;2023-11-18T00:10:05;12.07;;;9.50;;
16193;SDS011;8204;53.582;10.080;2023-11-18T00:12:31;9.17;;;7.83;;
16193;SDS011;8204;53.582;10.080;2023-11-18T00:15:01;9.33;;;8.43;;
16193;SDS011;8204;53.582;10.080;2023-11-18T00:17:29;8.60;;;7.80;;
16193;SDS011;8204;53.582;10.080;2023-11-18T00:19:55;8.07;;;7.40;;
16193;SDS011;8204;53.582;10.080;2023-11-18T00:22:20;9.83;;;8.87;;
16193;SDS011;8204;53.582;10.080;2023-11-18T00:24:46;8.93;;;8.23;;
16193;SDS011;8204;53.582;10.080;2023-11-18T00:27:11;8.73;;;8.03;;
16193;SDS011;8204;53.582;10.080;2023-11-18T00:29:40;8.13;;;7.23;;
16193;SDS011;8204;53.582;10.080;2023-11-18T00:32:06;9.60;;;8.80;;
16193;SDS011;8204;53.582;10.080;2023-11-18T00:34:32;9.43;;;8.47;;
16193;SDS011;8204;53.582;10.080;2023-11-18T00:36:58;8.73;;;7.93;;
16193;SDS011;8204;53.582;10.080;2023-11-18T00:39:24;8.47;;;7.67;;
16193;SDS011;8204;53.582;10.080;2023-11-18T00:41:50;9.87;;;8.97;;
16193;SDS011;8204;53.582;10.080;2023-11-18T00:44:16;10.40;;;8.90;;
16193;SDS011;8204;53.582;10.080;2023-11-18T00:46:43;9.63;;;8.77;;
16193;SDS011;8204;53.582;10.080;2023-11-18T00:49:09;9.00;;;8.20;;
16193;SDS011;8204;53.582;10.080;2023-11-18T00:51:37;9.47;;;8.47;;
16193;SDS011;8204;53.582;10.080;2023-11-18T00:54:02;11.13;;;10.13;;
16193;SDS011;8204;53.582;10.080;2023-11-18T00:56:32;10.03;;;9.13;;
16193;SDS011;8204;53.582;10.080;2023-11-18T00:58:58;10.40;;;9.50;;
16193;SDS011;8204;53.582;10.080;2023-11-18T01:01:23;10.30;;;9.40;;
16193;SDS011;8204;53.582;10.080;2023-11-18T01:03:49;9.30;;;8.50;;
16193;SDS011;8204;53.582;10.080;2023-11-18T01:06:14;9.00;;;8.20;;
16193;SDS011;8204;53.582;10.080;2023-11-18T01:08:43;9.57;;;8.67;;
16193;SDS011;8204;53.582;10.080;2023-11-18T01:11:09;9.60;;;8.70;;
16193;SDS011;8204;53.582;10.080;2023-11-18T01:13:35;9.50;;;8.60;;
16193;SDS011;8204;53.582;10.080;2023-11-18T01:16:01;9.60;;;8.60;;
16193;SDS011;8204;53.582;10.080;2023-11-18T01:18:27;8.50;;;7.80;;
16193;SDS011;8204;53.582;10.080;2023-11-18T01:20:53;11.13;;;8.17;;
16193;SDS011;8204;53.582;10.080;2023-11-18T01:23:19;9.27;;;8.53;;
16193;SDS011;8204;53.582;10.080;2023-11-18T01:25:44;8.97;;;8.10;;
16193;SDS011;8204;53.582;10.080;2023-11-18T01:28:10;9.30;;;8.40;;
16193;SDS011;8204;53.582;10.080;2023-11-18T01:30:35;10.23;;;9.30;;
16193;SDS011;8204;53.582;10.080;2023-11-18T01:33:01;10.57;;;9.57;;
16193;SDS011;8204;53.582;10.080;2023-11-18T01:35:27;9.33;;;8.40;;
16193;SDS011;8204;53.582;10.080;2023-11-18T01:37:53;10.10;;;8.53;;
16193;SDS011;8204;53.582;10.080;2023-11-18T01:40:20;10.10;;;9.10;;
16193;SDS011;8204;53.582;10.080;2023-11-18T01:42:45;9.57;;;8.67;;
16193;SDS011;8204;53.582;10.080;2023-11-18T01:45:12;9.20;;;8.40;;
16193;SDS011;8204;53.582;10.080;2023-11-18T01:47:39;10.97;;;9.97;;
16193;SDS011;8204;53.582;10.080;2023-11-18T01:50:07;9.17;;;8.00;;
16193;SDS011;8204;53.582;10.080;2023-11-18T01:52:33;10.43;;;9.53;;
16193;SDS011;8204;53.582;10.080;2023-11-18T01:55:00;9.63;;;8.77;;
16193;SDS011;8204;53.582;10.080;2023-11-18T01:57:29;10.10;;;9.17;;
16193;SDS011;8204;53.582;10.080;2023-11-18T01:59:54;11.30;;;10.20;;
16193;SDS011;8204;53.582;10.080;2023-11-18T02:02:20;12.03;;;8.83;;
16193;SDS011;8204;53.582;10.080;2023-11-18T02:04:46;11.27;;;10.17;;
16193;SDS011;8204;53.582;10.080;2023-11-18T02:07:12;11.43;;;10.33;;
16193;SDS011;8204;53.582;10.080;2023-11-18T02:09:40;11.10;;;10.07;;
16193;SDS011;8204;53.582;10.080;2023-11-18T02:12:18;9.63;;;8.73;;
16193;SDS011;8204;53.582;10.080;2023-11-18T02:14:49;10.67;;;9.10;;
16193;SDS011;8204;53.582;10.080;2023-11-18T02:17:16;10.53;;;9.60;;
16193;SDS011;8204;53.582;10.080;2023-11-18T02:19:43;9.97;;;9.07;;
16193;SDS011;8204;53.582;10.080;2023-11-18T02:22:09;12.17;;;9.33;;
16193;SDS011;8204;53.582;10.080;2023-11-18T02:24:36;10.13;;;9.17;;
16193;SDS011;8204;53.582;10.080;2023-11-18T02:27:03;10.67;;;9.67;;
16193;SDS011;8204;53.582;10.080;2023-11-18T02:29:33;9.13;;;8.33;;
16193;SDS011;8204;53.582;10.080;2023-11-18T02:32:20;11.40;;;10.30;;
16193;SDS011;8204;53.582;10.080;2023-11-18T02:35:02;9.47;;;8.37;;
16193;SDS011;8204;53.582;10.080;2023-11-18T02:37:36;9.40;;;8.60;;
16193;SDS011;8204;53.582;10.080;2023-11-18T02:40:04;9.23;;;8.43;;
16193;SDS011;8204;53.582;10.080;2023-11-18T02:42:39;9.37;;;8.60;;
16193;SDS011;8204;53.582;10.080;2023-11-18T02:45:07;9.00;;;8.20;;
16193;SDS011;8204;53.582;10.080;2023-11-18T02:47:34;11.07;;;10.07;;
16193;SDS011;8204;53.582;10.080;2023-11-18T02:50:00;11.20;;;9.93;;
16193;SDS011;8204;53.582;10.080;2023-11-18T02:52:31;9.50;;;8.53;;
16193;SDS011;8204;53.582;10.080;2023-11-18T02:54:58;10.80;;;9.80;;
16193;SDS011;8204;53.582;10.080;2023-11-18T02:57:24;9.77;;;8.87;;
16193;SDS011;8204;53.582;10.080;2023-11-18T02:59:49;11.80;;;10.63;;
16193;SDS011;8204;53.582;10.080;2023-11-18T03:02:15;10.07;;;9.17;;
16193;SDS011;8204;53.582;10.080;2023-11-18T03:04:40;10.43;;;9.40;;
16193;SDS011;8204;53.582;10.080;2023-11-18T03:07:08;10.80;;;9.70;;
16193;SDS011;8204;53.582;10.080;2023-11-18T03:09:34;11.10;;;9.80;;
16193;SDS011;8204;53.582;10.080;2023-11-18T03:12:00;10.53;;;9.63;;
16193;SDS011;8204;53.582;10.080;2023-11-18T03:14:25;9.73;;;8.90;;
16193;SDS011;8204;53.582;10.080;2023-11-18T03:16:51;10.70;;;9.70;;
16193;SDS011;8204;53.582;10.080;2023-11-18T03:19:17;10.90;;;9.80;;
16193;SDS011;8204;53.582;10.080;2023-11-18T03:21:44;11.03;;;9.93;;
16193;SDS011;8204;53.582;10.080;2023-11-18T03:24:15;10.47;;;9.53;;
16193;SDS011;8204;53.582;10.080;2023-11-18T03:26:41;10.77;;;9.77;;
16193;SDS011;8204;53.582;10.080;2023-11-18T03:29:07;11.03;;;9.13;;
16193;SDS011;8204;53.582;10.080;2023-11-18T03:31:35;11.03;;;10.00;;
16193;SDS011;8204;53.582;10.080;2023-11-18T03:34:02;10.37;;;9.43;;
16193;SDS011;8204;53.582;10.080;2023-11-18T03:36:28;11.90;;;10.77;;
16193;SDS011;8204;53.582;10.080;2023-11-18T03:38:54;11.03;;;9.93;;
16193;SDS011;8204;53.582;10.080;2023-11-18T03:41:20;10.70;;;9.70;;
16193;SDS011;8204;53.582;10.080;2023-11-18T03:43:48;12.67;;;10.67;;
16193;SDS011;8204;53.582;10.080;2023-11-18T03:46:13;10.17;;;9.20;;
16193;SDS011;8204;53.582;10.080;2023-11-18T03:48:40;10.57;;;9.63;;
16193;SDS011;8204;53.582;10.080;2023-11-18T03:51:10;15.33;;;9.43;;
16193;SDS011;8204;53.582;10.080;2023-11-18T03:53:36;10.00;;;9.00;;
16193;SDS011;8204;53.582;10.080;2023-11-18T03:56:02;12.53;;;10.17;;
16193;SDS011;8204;53.582;10.080;2023-11-18T03:58:28;10.10;;;9.13;;
16193;SDS011;8204;53.582;10.080;2023-11-18T04:00:53;10.87;;;9.77;;
16193;SDS011;8204;53.582;10.080;2023-11-18T04:03:19;10.83;;;9.73;;
16193;SDS011;8204;53.582;10.080;2023-11-18T04:05:44;9.67;;;8.77;;
16193;SDS011;8204;53.582;10.080;2023-11-18T04:08:10;10.17;;;8.97;;
16193;SDS011;8204;53.582;10.080;2023-11-18T04:10:36;9.50;;;8.60;;
16193;SDS011;8204;53.582;10.080;2023-11-18T04:13:02;9.90;;;8.90;;
16193;SDS011;8204;53.582;10.080;2023-11-18T04:15:28;9.73;;;8.87;;
16193;SDS011;8204;53.582;10.080;2023-11-18T04:17:53;11.13;;;9.93;;
16193;SDS011;8204;53.582;10.080;2023-11-18T04:20:19;10.17;;;9.27;;
16193;SDS011;8204;53.582;10.080;2023-11-18T04:22:45;10.10;;;9.17;;
16193;SDS011;8204;53.582;10.080;2023-11-18T04:25:11;11.33;;;10.23;;
16193;SDS011;8204;53.582;10.080;2023-11-18T04:27:37;10.67;;;9.67;;
16193;SDS011;8204;53.582;10.080;2023-11-18T04:30:03;10.60;;;9.53;;
16193;SDS011;8204;53.582;10.080;2023-11-18T04:32:29;11.10;;;10.07;;
16193;SDS011;8204;53.582;10.080;2023-11-18T04:34:58;12.50;;;11.30;;
16193;SDS011;8204;53.582;10.080;2023-11-18T04:37:25;12.60;;;11.50;;
16193;SDS011;8204;53.582;10.080;2023-11-18T04:39:51;13.13;;;11.93;;
16193;SDS011;8204;53.582;10.080;2023-11-18T04:42:17;11.80;;;10.80;;
16193;SDS011;8204;53.582;10.080;2023-11-18T04:44:44;11.67;;;10.60;;
16193;SDS011;8204;53.582;10.080;2023-11-18T04:47:10;12.27;;;11.07;;
16193;SDS011;8204;53.582;10.080;2023-11-18T04:49:37;11.77;;;10.67;;
16193;SDS011;8204;53.582;10.080;2023-11-18T04:52:02;11.17;;;10.20;;
16193;SDS011;8204;53.582;10.080;2023-11-18T04:54:28;12.00;;;10.90;;
16193;SDS011;8204;53.582;10.080;2023-11-18T04:56:53;11.60;;;10.50;;
16193;SDS011;8204;53.582;10.080;2023-11-18T04:59:19;11.10;;;10.10;;
16193;SDS011;8204;53.582;10.080;2023-11-18T05:01:44;11.10;;;10.00;;
16193;SDS011;8204;53.582;10.080;2023-11-18T05:04:11;9.90;;;9.10;;
16193;SDS011;8204;53.582;10.080;2023-11-18T05:06:36;11.67;;;10.63;;
16193;SDS011;8204;53.582;10.080;2023-11-18T05:09:02;10.80;;;9.80;;
16193;SDS011;8204;53.582;10.080;2023-11-18T05:11:28;10.63;;;9.73;;
16193;SDS011;8204;53.582;10.080;2023-11-18T05:13:53;12.20;;;11.00;;
16193;SDS011;8204;53.582;10.080;2023-11-18T05:16:19;10.43;;;9.53;;
16193;SDS011;8204;53.582;10.080;2023-11-18T05:18:45;9.60;;;8.80;;
16193;SDS011;8204;53.582;10.080;2023-11-18T05:21:10;10.20;;;9.20;;
16193;SDS011;8204;53.582;10.080;2023-11-18T05:23:36;10.47;;;9.33;;
16193;SDS011;8204;53.582;10.080;2023-11-18T05:26:02;9.90;;;9.00;;
16193;SDS011;8204;53.582;10.080;2023-11-18T05:28:30;10.27;;;9.37;;
16193;SDS011;8204;53.582;10.080;2023-11-18T05:30:56;9.93;;;8.93;;
16193;SDS011;8204;53.582;10.080;2023-11-18T05:33:27;11.17;;;10.13;;
16193;SDS011;8204;53.582;10.080;2023-11-18T05:35:54;11.40;;;10.40;;
16193;SDS011;8204;53.582;10.080;2023-11-18T05:38:19;18.03;;;10.63;;
16193;SDS011;8204;53.582;10.080;2023-11-18T05:40:47;12.50;;;11.20;;
16193;SDS011;8204;53.582;10.080;2023-11-18T05:43:23;11.37;;;10.07;;
16193;SDS011;8204;53.582;10.080;2023-11-18T05:45:51;12.60;;;11.17;;
16193;SDS011;8204;53.582;10.080;2023-11-18T05:48:36;10.93;;;9.93;;
16193;SDS011;8204;53.582;10.080;2023-11-18T05:51:02;11.93;;;9.70;;
16193;SDS011;8204;53.582;10.080;2023-11-18T05:53:28;11.80;;;10.40;;
16193;SDS011;8204;53.582;10.080;2023-11-18T05:55:54;10.90;;;9.93;;
16193;SDS011;8204;53.582;10.080;2023-11-18T05:58:19;12.37;;;11.17;;
16193;SDS011;8204;53.582;10.080;2023-11-18T06:00:46;12.40;;;11.20;;
16193;SDS011;8204;53.582;10.080;2023-11-18T06:03:12;13.77;;;12.20;;
16193;SDS011;8204;53.582;10.080;2023-11-18T06:05:37;12.53;;;11.20;;
16193;SDS011;8204;53.582;10.080;2023-11-18T06:08:03;12.47;;;11.10;;
16193;SDS011;8204;53.582;10.080;2023-11-18T06:10:29;10.70;;;9.70;;
16193;SDS011;8204;53.582;10.080;2023-11-18T06:12:57;11.57;;;10.47;;
16193;SDS011;8204;53.582;10.080;2023-11-18T06:15:23;12.37;;;11.17;;
16193;SDS011;8204;53.582;10.080;2023-11-18T06:17:49;13.20;;;11.50;;
16193;SDS011;8204;53.582;10.080;2023-11-18T06:20:14;13.63;;;12.30;;
16193;SDS011;8204;53.582;10.080;2023-11-18T06:22:42;13.80;;;11.87;;
16193;SDS011;8204;53.582;10.080;2023-11-18T06:25:08;13.83;;;12.07;;
16193;SDS011;8204;53.582;10.080;2023-11-18T06:27:34;14.10;;;10.87;;
16193;SDS011;8204;53.582;10.080;2023-11-18T06:30:00;14.13;;;12.57;;
16193;SDS011;8204;53.582;10.080;2023-11-18T06:32:25;12.20;;;11.07;;
16193;SDS011;8204;53.582;10.080;2023-11-18T06:34:52;11.13;;;10.13;;
16193;SDS011;8204;53.582;10.080;2023-11-18T06:37:18;14.67;;;13.10;;
16193;SDS011;8204;53.582;10.080;2023-11-18T06:39:44;13.03;;;11.73;;
16193;SDS011;8204;53.582;10.080;2023-11-18T06:42:13;12.67;;;11.50;;
16193;SDS011;8204;53.582;10.080;2023-11-18T06:44:39;13.00;;;11.77;;
16193;SDS011;8204;53.582;10.080;2023-11-18T06:47:05;12.07;;;10.87;;
16193;SDS011;8204;53.582;10.080;2023-11-18T06:49:31;11.57;;;10.37;;
16193;SDS011;8204;53.582;10.080;2023-11-18T06:51:59;11.40;;;10.20;;
16193;SDS011;8204;53.582;10.080;2023-11-18T06:54:28;10.30;;;9.20;;
16193;SDS011;8204;53.582;10.080;2023-11-18T06:56:54;10.40;;;9.30;;
16193;SDS011;8204;53.582;10.080;2023-11-18T06:59:20;10.73;;;9.67;;
16193;SDS011;8204;53.582;10.080;2023-11-18T07:01:46;11.47;;;9.97;;
16193;SDS011;8204;53.582;10.080;2023-11-18T07:04:11;11.37;;;8.97;;
16193;SDS011;8204;53.582;10.080;2023-11-18T07:06:37;10.80;;;9.70;;
16193;SDS011;8204;53.582;10.080;2023-11-18T07:09:06;13.10;;;9.83;;
16193;SDS011;8204;53.582;10.080;2023-11-18T07:11:43;10.50;;;9.40;;
16193;SDS011;8204;53.582;10.080;2023-11-18T07:14:09;12.17;;;9.13;;
16193;SDS011;8204;53.582;10.080;2023-11-18T07:16:40;10.87;;;9.47;;
16193;SDS011;8204;53.582;10.080;2023-11-18T07:19:07;11.27;;;10.10;;
16193;SDS011;8204;53.582;10.080;2023-11-18T07:21:33;11.13;;;10.03;;
16193;SDS011;8204;53.582;10.080;2023-11-18T07:24:00;10.33;;;9.23;;
16193;SDS011;8204;53.582;10.080;2023-11-18T07:26:28;10.60;;;9.50;;
16193;SDS011;8204;53.582;10.080;2023-11-18T07:28:53;11.70;;;10.53;;
16193;SDS011;8204;53.582;10.080;2023-11-18T07:31:19;11.43;;;10.33;;
16193;SDS011;8204;53.582;10.080;2023-11-18T07:33:45;11.60;;;10.50;;
16193;SDS011;8204;53.582;10.080;2023-11-18T07:36:17;11.87;;;10.67;;
16193;SDS011;8204;53.582;10.080;2023-11-18T07:38:45;11.23;;;10.20;;
16193;SDS011;8204;53.582;10.080;2023-11-18T07:41:12;11.07;;;9.97;;
16193;SDS011;8204;53.582;10.080;2023-11-18T07:43:51;11.33;;;10.23;;
16193;SDS011;8204;53.582;10.080;2023-11-18T07:46:22;12.03;;;10.93;;
16193;SDS011;8204;53.582;10.080;2023-11-18T07:48:49;12.40;;;11.13;;
16193;SDS011;8204;53.582;10.080;2023-11-18T07:51:15;11.87;;;10.77;;
16193;SDS011;8204;53.582;10.080;2023-11-18T07:53:40;11.23;;;10.13;;
16193;SDS011;8204;53.582;10.080;2023-11-18T07:56:07;11.70;;;10.57;;
16193;SDS011;8204;53.582;10.080;2023-11-18T07:58:36;12.33;;;11.07;;
16193;SDS011;8204;53.582;10.080;2023-11-18T08:01:02;12.80;;;11.03;;
16193;SDS011;8204;53.582;10.080;2023-11-18T08:03:29;11.93;;;10.93;;
16193;SDS011;8204;53.582;10.080;2023-11-18T08:05:56;11.43;;;10.33;;
16193;SDS011;8204;53.582;10.080;2023-11-18T08:08:23;11.83;;;10.63;;
16193;SDS011;8204;53.582;10.080;2023-11-18T08:10:48;12.87;;;11.60;;
16193;SDS011;8204;53.582;10.080;2023-11-18T08:13:15;12.30;;;11.10;;
16193;SDS011;8204;53.582;10.080;2023-11-18T08:15:41;12.60;;;11.20;;
16193;SDS011;8204;53.582;10.080;2023-11-18T08:18:13;12.63;;;11.03;;
16193;SDS011;8204;53.582;10.080;2023-11-18T08:20:38;12.60;;;11.33;;
16193;SDS011;8204;53.582;10.080;2023-11-18T08:23:04;11.90;;;10.70;;
16193;SDS011;8204;53.582;10.080;2023-11-18T08:25:31;12.80;;;11.20;;
16193;SDS011;8204;53.582;10.080;2023-11-18T08:28:00;12.13;;;10.93;;
16193;SDS011;8204;53.582;10.080;2023-11-18T08:30:27;12.03;;;10.57;;
16193;SDS011;8204;53.582;10.080;2023-11-18T08:32:52;13.97;;;10.83;;
16193;SDS011;8204;53.582;10.080;2023-11-18T08:35:18;10.67;;;9.57;;
16193;SDS011;8204;53.582;10.080;2023-11-18T08:37:44;11.27;;;9.90;;
16193;SDS011;8204;53.582;10.080;2023-11-18T08:40:11;9.50;;;8.50;;
16193;SDS011;8204;53.582;10.080;2023-11-18T08:42:44;11.17;;;10.17;;
16193;SDS011;8204;53.582;10.080;2023-11-18T08:45:23;9.67;;;8.63;;
16193;SDS011;8204;53.582;10.080;2023-11-18T08:47:54;13.50;;;10.17;;
16193;SDS011;8204;53.582;10.080;2023-11-18T08:50:21;11.40;;;10.27;;
16193;SDS011;8204;53.582;10.080;2023-11-18T08:52:49;9.87;;;8.87;;
16193;SDS011;8204;53.582;10.080;2023-11-18T08:55:18;8.67;;;7.87;;
16193;SDS011;8204;53.582;10.080;2023-11-18T08:57:48;9.43;;;8.17;;
16193;SDS011;8204;53.582;10.080;2023-11-18T09:00:35;12.03;;;8.23;;
16193;SDS011;8204;53.582;10.080;2023-11-18T09:05:59;8.13;;;7.33;;
16193;SDS011;8204;53.582;10.080;2023-11-18T09:08:43;9.43;;;7.83;;
16193;SDS011;8204;53.582;10.080;2023-11-18T09:11:11;7.60;;;6.73;;
16193;SDS011;8204;53.582;10.080;2023-11-18T09:13:41;8.50;;;7.03;;
16193;SDS011;8204;53.582;10.080;2023-11-18T09:16:10;8.07;;;7.27;;
16193;SDS011;8204;53.582;10.080;2023-11-18T09:18:36;8.07;;;7.37;;
16193;SDS011;8204;53.582;10.080;2023-11-18T09:21:04;9.80;;;7.50;;
16193;SDS011;8204;53.582;10.080;2023-11-18T09:23:32;8.07;;;7.30;;
16193;SDS011;8204;53.582;10.080;2023-11-18T09:26:00;9.47;;;8.27;;
16193;SDS011;8204;53.582;10.080;2023-11-18T09:28:26;9.60;;;7.60;;
16193;SDS011;8204;53.582;10.080;2023-11-18T09:30:55;8.47;;;7.67;;
16193;SDS011;8204;53.582;10.080;2023-11-18T09:33:26;8.67;;;7.03;;
16193;SDS011;8204;53.582;10.080;2023-11-18T09:36:01;7.93;;;7.07;;
16193;SDS011;8204;53.582;10.080;2023-11-18T09:38:33;8.70;;;7.90;;
16193;SDS011;8204;53.582;10.080;2023-11-18T09:41:05;7.83;;;7.03;;
16193;SDS011;8204;53.582;10.080;2023-11-18T09:43:36;7.27;;;6.63;;
16193;SDS011;8204;53.582;10.080;2023-11-18T09:46:16;8.53;;;7.80;;
16193;SDS011;8204;53.582;10.080;2023-11-18T09:48:52;8.43;;;7.50;;
16193;SDS011;8204;53.582;10.080;2023-11-18T09:51:27;7.13;;;6.43;;
16193;SDS011;8204;53.582;10.080;2023-11-18T09:54:00;9.57;;;7.40;;
16193;SDS011;8204;53.582;10.080;2023-11-18T09:56:33;6.77;;;6.00;;
16193;SDS011;8204;53.582;10.080;2023-11-18T09:59:11;7.43;;;6.23;;
16193;SDS011;8204;53.582;10.080;2023-11-18T10:01:41;6.60;;;6.00;;
16193;SDS011;8204;53.582;10.080;2023-11-18T10:04:11;7.30;;;6.60;;
16193;SDS011;8204;53.582;10.080;2023-11-18T10:06:38;7.73;;;6.60;;
16193;SDS011;8204;53.582;10.080;2023-11-18T10:09:06;6.87;;;6.10;;
16193;SDS011;8204;53.582;10.080;2023-11-18T10:11:42;7.93;;;5.37;;
16193;SDS011;8204;53.582;10.080;2023-11-18T10:14:11;6.27;;;5.73;;
16193;SDS011;8204;53.582;10.080;2023-11-18T10:16:40;6.10;;;5.00;;
16193;SDS011;8204;53.582;10.080;2023-11-18T10:19:07;6.73;;;6.03;;
16193;SDS011;8204;53.582;10.080;2023-11-18T10:21:34;6.43;;;5.63;;
16193;SDS011;8204;53.582;10.080;2023-11-18T10:24:04;6.13;;;5.63;;
16193;SDS011;8204;53.582;10.080;2023-11-18T10:26:36;4.80;;;4.40;;
16193;SDS011;8204;53.582;10.080;2023-11-18T10:29:03;4.80;;;4.40;;
16193;SDS011;8204;53.582;10.080;2023-11-18T10:31:33;4.37;;;3.73;;
16193;SDS011;8204;53.582;10.080;2023-11-18T10:34:00;4.13;;;3.53;;
16193;SDS011;8204;53.582;10.080;2023-11-18T10:36:26;6.80;;;3.73;;
16193;SDS011;8204;53.582;10.080;2023-11-18T10:38:52;4.17;;;3.77;;
16193;SDS011;8204;53.582;10.080;2023-11-18T10:41:21;4.50;;;4.10;;
16193;SDS011;8204;53.582;10.080;2023-11-18T10:43:48;4.77;;;4.40;;
16193;SDS011;8204;53.582;10.080;2023-11-18T10:46:14;7.67;;;4.67;;
16193;SDS011;8204;53.582;10.080;2023-11-18T10:48:44;4.67;;;4.23;;
16193;SDS011;8204;53.582;10.080;2023-11-18T10:51:14;4.83;;;4.30;;
16193;SDS011;8204;53.582;10.080;2023-11-18T10:53:41;5.17;;;4.40;;
16193;SDS011;8204;53.582;10.080;2023-11-18T10:56:19;4.97;;;4.10;;
16193;SDS011;8204;53.582;10.080;2023-11-18T10:58:49;4.80;;;4.40;;
16193;SDS011;8204;53.582;10.080;2023-11-18T11:01:16;4.97;;;4.47;;
16193;SDS011;8204;53.582;10.080;2023-11-18T11:03:55;3.67;;;3.37;;
16193;SDS011;8204;53.582;10.080;2023-11-18T11:06:23;3.70;;;3.40;;
16193;SDS011;8204;53.582;10.080;2023-11-18T11:08:49;4.10;;;3.27;;
16193;SDS011;8204;53.582;10.080;2023-11-18T11:11:19;3.17;;;2.97;;
16193;SDS011;8204;53.582;10.080;2023-11-18T11:13:52;4.57;;;4.27;;
16193;SDS011;8204;53.582;10.080;2023-11-18T11:16:23;4.80;;;4.40;;
16193;SDS011;8204;53.582;10.080;2023-11-18T11:19:00;3.47;;;3.27;;
16193;SDS011;8204;53.582;10.080;2023-11-18T11:21:43;3.20;;;2.90;;
16193;SDS011;8204;53.582;10.080;2023-11-18T11:24:20;4.27;;;3.53;;
16193;SDS011;8204;53.582;10.080;2023-11-18T11:27:17;3.63;;;3.33;;
16193;SDS011;8204;53.582;10.080;2023-11-18T11:30:02;4.03;;;2.93;;
16193;SDS011;8204;53.582;10.080;2023-11-18T11:32:38;3.60;;;3.30;;
16193;SDS011;8204;53.582;10.080;2023-11-18T11:35:14;2.63;;;2.43;;
16193;SDS011;8204;53.582;10.080;2023-11-18T11:37:46;2.90;;;2.70;;
16193;SDS011;8204;53.582;10.080;2023-11-18T11:40:14;3.37;;;3.07;;
16193;SDS011;8204;53.582;10.080;2023-11-18T11:42:47;3.60;;;3.13;;
16193;SDS011;8204;53.582;10.080;2023-11-18T11:45:20;3.23;;;3.00;;
16193;SDS011;8204;53.582;10.080;2023-11-18T11:47:48;3.07;;;2.87;;
16193;SDS011;8204;53.582;10.080;2023-11-18T11:50:21;3.53;;;3.23;;
16193;SDS011;8204;53.582;10.080;2023-11-18T11:52:59;3.93;;;3.50;;
16193;SDS011;8204;53.582;10.080;2023-11-18T11:58:26;4.10;;;3.23;;
16193;SDS011;8204;53.582;10.080;2023-11-18T12:00:53;4.47;;;4.07;;
16193;SDS011;8204;53.582;10.080;2023-11-18T12:03:21;3.97;;;3.60;;
16193;SDS011;8204;53.582;10.080;2023-11-18T12:05:54;4.97;;;4.57;;
16193;SDS011;8204;53.582;10.080;2023-11-18T12:08:24;5.23;;;4.73;;
16193;SDS011;8204;53.582;10.080;2023-11-18T12:10:51;5.63;;;4.77;;
16193;SDS011;8204;53.582;10.080;2023-11-18T12:13:23;6.53;;;4.70;;
16193;SDS011;8204;53.582;10.080;2023-11-18T12:15:55;4.97;;;4.53;;
16193;SDS011;8204;53.582;10.080;2023-11-18T12:18:28;7.30;;;5.50;;
16193;SDS011;8204;53.582;10.080;2023-11-18T12:20:56;5.43;;;5.03;;
16193;SDS011;8204;53.582;10.080;2023-11-18T12:23:27;5.77;;;5.33;;
16193;SDS011;8204;53.582;10.080;2023-11-18T12:25:54;8.10;;;7.40;;
16193;SDS011;8204;53.582;10.080;2023-11-18T12:28:26;5.17;;;4.67;;
16193;SDS011;8204;53.582;10.080;2023-11-18T12:30:53;4.97;;;4.57;;
16193;SDS011;8204;53.582;10.080;2023-11-18T12:36:27;4.67;;;4.27;;
16193;SDS011;8204;53.582;10.080;2023-11-18T12:39:14;4.60;;;4.20;;
16193;SDS011;8204;53.582;10.080;2023-11-18T12:42:06;5.20;;;4.70;;
16193;SDS011;8204;53.582;10.080;2023-11-18T12:44:37;4.87;;;4.40;;
16193;SDS011;8204;53.582;10.080;2023-11-18T12:47:09;4.40;;;4.03;;
16193;SDS011;8204;53.582;10.080;2023-11-18T12:49:42;4.70;;;4.30;;
16193;SDS011;8204;53.582;10.080;2023-11-18T12:52:08;4.43;;;4.03;;
16193;SDS011;8204;53.582;10.080;2023-11-18T12:54:36;6.37;;;5.23;;
16193;SDS011;8204;53.582;10.080;2023-11-18T12:57:08;4.87;;;4.47;;
16193;SDS011;8204;53.582;10.080;2023-11-18T12:59:35;5.70;;;5.17;;
16193;SDS011;8204;53.582;10.080;2023-11-18T13:02:09;5.43;;;4.97;;
16193;SDS011;8204;53.582;10.080;2023-11-18T13:04:41;4.90;;;4.50;;
16193;SDS011;8204;53.582;10.080;2023-11-18T13:07:06;5.00;;;4.50;;
16193;SDS011;8204;53.582;10.080;2023-11-18T13:09:36;5.40;;;5.00;;
16193;SDS011;8204;53.582;10.080;2023-11-18T13:12:03;4.97;;;4.57;;
16193;SDS011;8204;53.582;10.080;2023-11-18T13:14:35;5.10;;;4.70;;
16193;SDS011;8204;53.582;10.080;2023-11-18T13:17:01;5.53;;;5.03;;
16193;SDS011;8204;53.582;10.080;2023-11-18T13:19:31;6.30;;;5.57;;
16193;SDS011;8204;53.582;10.080;2023-11-18T13:22:00;6.00;;;5.50;;
16193;SDS011;8204;53.582;10.080;2023-11-18T13:24:29;6.73;;;5.63;;
16193;SDS011;8204;53.582;10.080;2023-11-18T13:26:55;5.97;;;5.47;;
16193;SDS011;8204;53.582;10.080;2023-11-18T13:29:25;6.90;;;6.20;;
16193;SDS011;8204;53.582;10.080;2023-11-18T13:31:50;5.90;;;5.30;;
16193;SDS011;8204;53.582;10.080;2023-11-18T13:34:19;5.90;;;5.33;;
16193;SDS011;8204;53.582;10.080;2023-11-18T13:36:48;5.87;;;5.30;;
16193;SDS011;8204;53.582;10.080;2023-11-18T13:39:16;6.73;;;6.17;;
16193;SDS011;8204;53.582;10.080;2023-11-18T13:41:43;7.53;;;6.57;;
16193;SDS011;8204;53.582;10.080;2023-11-18T13:44:10;6.80;;;6.10;;
16193;SDS011;8204;53.582;10.080;2023-11-18T13:46:38;10.17;;;5.33;;
16193;SDS011;8204;53.582;10.080;2023-11-18T13:49:05;7.17;;;5.50;;
16193;SDS011;8204;53.582;10.080;2023-11-18T13:51:31;6.53;;;5.93;;
16193;SDS011;8204;53.582;10.080;2023-11-18T13:53:58;7.27;;;6.13;;
16193;SDS011;8204;53.582;10.080;2023-11-18T13:56:25;5.73;;;5.23;;
16193;SDS011;8204;53.582;10.080;2023-11-18T13:58:52;6.03;;;5.47;;
16193;SDS011;8204;53.582;10.080;2023-11-18T14:01:19;7.03;;;6.33;;
16193;SDS011;8204;53.582;10.080;2023-11-18T14:03:46;6.67;;;6.07;;
16193;SDS011;8204;53.582;10.080;2023-11-18T14:06:13;5.97;;;5.43;;
16193;SDS011;8204;53.582;10.080;2023-11-18T14:08:43;5.77;;;5.27;;
16193;SDS011;8204;53.582;10.080;2023-11-18T14:11:09;6.97;;;6.10;;
16193;SDS011;8204;53.582;10.080;2023-11-18T14:13:36;5.30;;;4.90;;
16193;SDS011;8204;53.582;10.080;2023-11-18T14:16:03;6.60;;;5.83;;
16193;SDS011;8204;53.582;10.080;2023-11-18T14:18:29;5.63;;;5.20;;
16193;SDS011;8204;53.582;10.080;2023-11-18T14:20:54;5.73;;;5.13;;
16193;SDS011;8204;53.582;10.080;2023-11-18T14:23:20;8.10;;;5.67;;
16193;SDS011;8204;53.582;10.080;2023-11-18T14:25:47;5.30;;;4.80;;
16193;SDS011;8204;53.582;10.080;2023-11-18T14:28:13;7.53;;;5.23;;
16193;SDS011;8204;53.582;10.080;2023-11-18T14:30:39;6.47;;;4.93;;
16193;SDS011;8204;53.582;10.080;2023-11-18T14:33:05;4.57;;;4.20;;
16193;SDS011;8204;53.582;10.080;2023-11-18T14:35:32;4.60;;;4.20;;
16193;SDS011;8204;53.582;10.080;2023-11-18T14:37:59;5.10;;;4.60;;
16193;SDS011;8204;53.582;10.080;2023-11-18T14:40:26;4.63;;;4.23;;
16193;SDS011;8204;53.582;10.080;2023-11-18T14:42:53;3.67;;;3.37;;
16193;SDS011;8204;53.582;10.080;2023-11-18T14:45:19;4.03;;;3.73;;
16193;SDS011;8204;53.582;10.080;2023-11-18T14:47:47;4.40;;;4.10;;
16193;SDS011;8204;53.582;10.080;2023-11-18T14:50:14;3.97;;;3.67;;
16193;SDS011;8204;53.582;10.080;2023-11-18T14:52:45;4.07;;;3.67;;